sensor_id;sensor_type;location;lat;lon;timestamp;temperature;humidity
18339;DHT22;9295;44.484;11.240;2023-02-01T00:01:46;4.00;99.90
18339;DHT22;9295;44.484;11.240;2023-02-01T00:04:14;4.00;99.90
18339;DHT22;9295;44.484;11.240;2023-02-01T00:06:43;4.10;99.90
18339;DHT22;9295;44.484;11.240;2023-02-01T00:09:13;4.10;99.90
18339;DHT22;9295;44.484;11.240;2023-02-01T00:11:41;4.20;99.90
18339;DHT22;9295;44.484;11.240;2023-02-01T00:14:10;4.20;99.90
18339;DHT22;9295;44.484;11.240;2023-02-01T00:16:38;4.30;99.90
18339;DHT22;9295;44.484;11.240;2023-02-01T00:19:10;4.30;99.90
18339;DHT22;9295;44.484;11.240;2023-02-01T00:21:39;4.20;99.90
18339;DHT22;9295;44.484;11.240;2023-02-01T00:24:09;4.20;99.90
18339;DHT22;9295;44.484;11.240;2023-02-01T00:26:41;4.10;99.90
18339;DHT22;9295;44.484;11.240;2023-02-01T00:29:12;4.00;99.90
18339;DHT22;9295;44.484;11.240;2023-02-01T00:31:41;4.00;99.90
18339;DHT22;9295;44.484;11.240;2023-02-01T00:34:12;3.90;99.90
18339;DHT22;9295;44.484;11.240;2023-02-01T00:36:41;4.00;99.90
18339;DHT22;9295;44.484;11.240;2023-02-01T00:39:10;3.90;99.90
18339;DHT22;9295;44.484;11.240;2023-02-01T00:41:41;3.90;99.90
18339;DHT22;9295;44.484;11.240;2023-02-01T00:44:09;3.80;99.90
18339;DHT22;9295;44.484;11.240;2023-02-01T00:46:38;3.90;99.90
18339;DHT22;9295;44.484;11.240;2023-02-01T00:49:06;4.00;99.90
18339;DHT22;9295;44.484;11.240;2023-02-01T00:51:36;4.00;99.90
18339;DHT22;9295;44.484;11.240;2023-02-01T00:54:05;3.90;99.90
18339;DHT22;9295;44.484;11.240;2023-02-01T00:56:33;3.80;99.90
18339;DHT22;9295;44.484;11.240;2023-02-01T00:59:03;3.80;99.90
18339;DHT22;9295;44.484;11.240;2023-02-01T01:01:32;3.70;99.90
18339;DHT22;9295;44.484;11.240;2023-02-01T01:04:00;3.60;99.90
18339;DHT22;9295;44.484;11.240;2023-02-01T01:06:30;3.60;99.90
18339;DHT22;9295;44.484;11.240;2023-02-01T01:09:06;3.60;99.90
18339;DHT22;9295;44.484;11.240;2023-02-01T01:11:37;3.50;99.90
18339;DHT22;9295;44.484;11.240;2023-02-01T01:14:08;3.40;99.90
18339;DHT22;9295;44.484;11.240;2023-02-01T01:16:37;3.40;99.90
18339;DHT22;9295;44.484;11.240;2023-02-01T01:19:05;3.30;99.90
18339;DHT22;9295;44.484;11.240;2023-02-01T01:21:34;3.30;99.90
18339;DHT22;9295;44.484;11.240;2023-02-01T01:24:03;3.30;99.90
18339;DHT22;9295;44.484;11.240;2023-02-01T01:26:32;3.30;99.90
18339;DHT22;9295;44.484;11.240;2023-02-01T01:29:00;3.30;99.90
18339;DHT22;9295;44.484;11.240;2023-02-01T01:31:30;3.30;99.90
18339;DHT22;9295;44.484;11.240;2023-02-01T01:34:00;3.20;99.90
18339;DHT22;9295;44.484;11.240;2023-02-01T01:36:29;3.20;99.90
18339;DHT22;9295;44.484;11.240;2023-02-01T01:38:58;3.10;99.90
18339;DHT22;9295;44.484;11.240;2023-02-01T01:41:31;3.20;99.90
18339;DHT22;9295;44.484;11.240;2023-02-01T01:47:28;3.20;99.90
18339;DHT22;9295;44.484;11.240;2023-02-01T01:49:57;3.10;99.90
18339;DHT22;9295;44.484;11.240;2023-02-01T01:52:26;3.10;99.90
18339;DHT22;9295;44.484;11.240;2023-02-01T01:54:55;3.10;99.90
18339;DHT22;9295;44.484;11.240;2023-02-01T01:57:27;3.10;99.90
18339;DHT22;9295;44.484;11.240;2023-02-01T02:00:00;3.00;99.90
18339;DHT22;9295;44.484;11.240;2023-02-01T02:02:42;3.00;99.90
18339;DHT22;9295;44.484;11.240;2023-02-01T02:05:12;2.90;99.90
18339;DHT22;9295;44.484;11.240;2023-02-01T02:07:45;2.90;99.90
18339;DHT22;9295;44.484;11.240;2023-02-01T02:10:15;2.90;99.90
18339;DHT22;9295;44.484;11.240;2023-02-01T02:12:46;2.80;99.90
18339;DHT22;9295;44.484;11.240;2023-02-01T02:15:16;2.70;99.90
18339;DHT22;9295;44.484;11.240;2023-02-01T02:17:55;2.70;99.90
18339;DHT22;9295;44.484;11.240;2023-02-01T02:20:48;2.60;99.90
18339;DHT22;9295;44.484;11.240;2023-02-01T02:23:44;2.60;99.90
18339;DHT22;9295;44.484;11.240;2023-02-01T02:26:28;2.50;99.90
18339;DHT22;9295;44.484;11.240;2023-02-01T02:32:28;2.50;99.90
18339;DHT22;9295;44.484;11.240;2023-02-01T02:35:06;2.50;99.90
18339;DHT22;9295;44.484;11.240;2023-02-01T02:37:41;2.40;99.90
18339;DHT22;9295;44.484;11.240;2023-02-01T02:40:15;2.40;99.90
18339;DHT22;9295;44.484;11.240;2023-02-01T02:42:53;2.40;99.90
18339;DHT22;9295;44.484;11.240;2023-02-01T02:45:47;2.40;99.90
18339;DHT22;9295;44.484;11.240;2023-02-01T02:48:42;2.40;99.90
18339;DHT22;9295;44.484;11.240;2023-02-01T02:51:20;2.40;99.90
18339;DHT22;9295;44.484;11.240;2023-02-01T02:54:11;2.40;99.90
18339;DHT22;9295;44.484;11.240;2023-02-01T02:57:00;2.30;99.90
18339;DHT22;9295;44.484;11.240;2023-02-01T02:59:47;2.30;99.90
18339;DHT22;9295;44.484;11.240;2023-02-01T03:02:34;2.20;99.90
18339;DHT22;9295;44.484;11.240;2023-02-01T03:05:21;2.30;99.90
18339;DHT22;9295;44.484;11.240;2023-02-01T03:08:00;2.20;99.90
18339;DHT22;9295;44.484;11.240;2023-02-01T03:10:44;2.20;99.90
18339;DHT22;9295;44.484;11.240;2023-02-01T03:13:22;2.20;99.90
18339;DHT22;9295;44.484;11.240;2023-02-01T03:15:56;2.20;99.90
18339;DHT22;9295;44.484;11.240;2023-02-01T03:18:30;2.20;99.90
18339;DHT22;9295;44.484;11.240;2023-02-01T03:21:06;2.20;99.90
18339;DHT22;9295;44.484;11.240;2023-02-01T03:23:37;2.20;99.90
18339;DHT22;9295;44.484;11.240;2023-02-01T03:26:10;2.30;99.90
18339;DHT22;9295;44.484;11.240;2023-02-01T03:28:41;2.30;99.90
18339;DHT22;9295;44.484;11.240;2023-02-01T03:31:11;2.40;99.90
18339;DHT22;9295;44.484;11.240;2023-02-01T03:33:41;2.40;99.90
18339;DHT22;9295;44.484;11.240;2023-02-01T03:36:17;2.40;99.90
18339;DHT22;9295;44.484;11.240;2023-02-01T03:38:54;2.40;99.90
18339;DHT22;9295;44.484;11.240;2023-02-01T03:41:27;2.40;99.90
18339;DHT22;9295;44.484;11.240;2023-02-01T03:44:01;2.40;99.90
18339;DHT22;9295;44.484;11.240;2023-02-01T03:46:33;2.40;99.90
18339;DHT22;9295;44.484;11.240;2023-02-01T03:49:05;2.30;99.90
18339;DHT22;9295;44.484;11.240;2023-02-01T03:51:38;2.30;99.90
18339;DHT22;9295;44.484;11.240;2023-02-01T03:54:13;2.30;99.90
18339;DHT22;9295;44.484;11.240;2023-02-01T03:56:44;2.30;99.90
18339;DHT22;9295;44.484;11.240;2023-02-01T03:59:14;2.20;99.90
18339;DHT22;9295;44.484;11.240;2023-02-01T04:01:43;2.20;99.90
18339;DHT22;9295;44.484;11.240;2023-02-01T04:04:11;2.10;99.90
18339;DHT22;9295;44.484;11.240;2023-02-01T04:06:50;2.10;99.90
18339;DHT22;9295;44.484;11.240;2023-02-01T04:09:21;2.10;99.90
18339;DHT22;9295;44.484;11.240;2023-02-01T04:11:50;2.10;99.90
18339;DHT22;9295;44.484;11.240;2023-02-01T04:14:18;2.10;99.90
18339;DHT22;9295;44.484;11.240;2023-02-01T04:16:47;2.00;99.90
18339;DHT22;9295;44.484;11.240;2023-02-01T04:19:15;2.00;99.90
18339;DHT22;9295;44.484;11.240;2023-02-01T04:21:44;2.00;99.90
18339;DHT22;9295;44.484;11.240;2023-02-01T04:24:12;2.00;99.90
18339;DHT22;9295;44.484;11.240;2023-02-01T04:26:42;1.90;99.90
18339;DHT22;9295;44.484;11.240;2023-02-01T04:29:11;1.90;99.90
18339;DHT22;9295;44.484;11.240;2023-02-01T04:31:39;1.90;99.90
18339;DHT22;9295;44.484;11.240;2023-02-01T04:34:08;1.80;99.90
18339;DHT22;9295;44.484;11.240;2023-02-01T04:36:36;1.80;99.90
18339;DHT22;9295;44.484;11.240;2023-02-01T04:39:05;1.80;99.90
18339;DHT22;9295;44.484;11.240;2023-02-01T04:41:33;1.80;99.90
18339;DHT22;9295;44.484;11.240;2023-02-01T04:44:03;1.80;99.90
18339;DHT22;9295;44.484;11.240;2023-02-01T04:46:32;1.80;99.90
18339;DHT22;9295;44.484;11.240;2023-02-01T04:49:00;1.80;99.90
18339;DHT22;9295;44.484;11.240;2023-02-01T04:51:29;1.80;99.90
18339;DHT22;9295;44.484;11.240;2023-02-01T04:53:57;1.90;99.90
18339;DHT22;9295;44.484;11.240;2023-02-01T04:56:26;1.90;99.90
18339;DHT22;9295;44.484;11.240;2023-02-01T04:58:54;2.00;99.90
18339;DHT22;9295;44.484;11.240;2023-02-01T05:01:24;2.00;99.90
18339;DHT22;9295;44.484;11.240;2023-02-01T05:03:53;2.00;99.90
18339;DHT22;9295;44.484;11.240;2023-02-01T05:06:22;2.00;99.90
18339;DHT22;9295;44.484;11.240;2023-02-01T05:08:50;2.00;99.90
18339;DHT22;9295;44.484;11.240;2023-02-01T05:11:19;2.00;99.90
18339;DHT22;9295;44.484;11.240;2023-02-01T05:14:05;2.00;99.90
18339;DHT22;9295;44.484;11.240;2023-02-01T05:16:35;1.90;99.90
18339;DHT22;9295;44.484;11.240;2023-02-01T05:19:03;1.90;99.90
18339;DHT22;9295;44.484;11.240;2023-02-01T05:21:32;1.90;99.90
18339;DHT22;9295;44.484;11.240;2023-02-01T05:24:00;1.90;99.90
18339;DHT22;9295;44.484;11.240;2023-02-01T05:26:40;1.80;99.90
18339;DHT22;9295;44.484;11.240;2023-02-01T05:29:09;1.80;99.90
18339;DHT22;9295;44.484;11.240;2023-02-01T05:31:40;1.70;99.90
18339;DHT22;9295;44.484;11.240;2023-02-01T05:34:08;1.70;99.90
18339;DHT22;9295;44.484;11.240;2023-02-01T05:36:37;1.60;99.90
18339;DHT22;9295;44.484;11.240;2023-02-01T05:39:05;1.60;99.90
18339;DHT22;9295;44.484;11.240;2023-02-01T05:41:34;1.60;99.90
18339;DHT22;9295;44.484;11.240;2023-02-01T05:44:03;1.70;99.90
18339;DHT22;9295;44.484;11.240;2023-02-01T05:46:32;1.70;99.90
18339;DHT22;9295;44.484;11.240;2023-02-01T05:49:02;1.70;99.90
18339;DHT22;9295;44.484;11.240;2023-02-01T05:51:30;1.70;99.90
18339;DHT22;9295;44.484;11.240;2023-02-01T05:54:00;1.70;99.90
18339;DHT22;9295;44.484;11.240;2023-02-01T05:56:28;1.60;99.90
18339;DHT22;9295;44.484;11.240;2023-02-01T05:58:57;1.70;99.90
18339;DHT22;9295;44.484;11.240;2023-02-01T06:01:25;1.70;99.90
18339;DHT22;9295;44.484;11.240;2023-02-01T06:03:54;1.70;99.90
18339;DHT22;9295;44.484;11.240;2023-02-01T06:06:24;1.80;99.90
18339;DHT22;9295;44.484;11.240;2023-02-01T06:08:52;1.70;99.90
18339;DHT22;9295;44.484;11.240;2023-02-01T06:11:21;1.80;99.90
18339;DHT22;9295;44.484;11.240;2023-02-01T06:13:59;1.70;99.90
18339;DHT22;9295;44.484;11.240;2023-02-01T06:16:27;1.70;99.90
18339;DHT22;9295;44.484;11.240;2023-02-01T06:18:56;1.70;99.90
18339;DHT22;9295;44.484;11.240;2023-02-01T06:21:26;1.60;99.90
18339;DHT22;9295;44.484;11.240;2023-02-01T06:23:55;1.70;99.90
18339;DHT22;9295;44.484;11.240;2023-02-01T06:26:24;1.70;99.90
18339;DHT22;9295;44.484;11.240;2023-02-01T06:28:53;1.70;99.90
18339;DHT22;9295;44.484;11.240;2023-02-01T06:31:22;1.70;99.90
18339;DHT22;9295;44.484;11.240;2023-02-01T06:33:52;1.80;99.90
18339;DHT22;9295;44.484;11.240;2023-02-01T06:36:21;1.80;99.90
18339;DHT22;9295;44.484;11.240;2023-02-01T06:38:50;1.70;99.90
18339;DHT22;9295;44.484;11.240;2023-02-01T06:41:19;1.70;99.90
18339;DHT22;9295;44.484;11.240;2023-02-01T06:43:48;1.70;99.90
18339;DHT22;9295;44.484;11.240;2023-02-01T06:46:17;1.80;99.90
18339;DHT22;9295;44.484;11.240;2023-02-01T06:48:46;1.90;99.90
18339;DHT22;9295;44.484;11.240;2023-02-01T06:51:24;1.90;99.90
18339;DHT22;9295;44.484;11.240;2023-02-01T06:53:54;1.90;99.90
18339;DHT22;9295;44.484;11.240;2023-02-01T06:56:23;1.90;99.90
18339;DHT22;9295;44.484;11.240;2023-02-01T06:58:52;2.00;99.90
18339;DHT22;9295;44.484;11.240;2023-02-01T07:01:20;2.10;99.90
18339;DHT22;9295;44.484;11.240;2023-02-01T07:03:49;2.20;99.90
18339;DHT22;9295;44.484;11.240;2023-02-01T07:06:19;2.30;99.90
18339;DHT22;9295;44.484;11.240;2023-02-01T07:08:48;2.40;99.90
18339;DHT22;9295;44.484;11.240;2023-02-01T07:11:19;2.50;99.90
18339;DHT22;9295;44.484;11.240;2023-02-01T07:13:47;2.60;99.90
18339;DHT22;9295;44.484;11.240;2023-02-01T07:16:17;2.70;99.90
18339;DHT22;9295;44.484;11.240;2023-02-01T07:18:47;2.80;99.90
18339;DHT22;9295;44.484;11.240;2023-02-01T07:21:15;2.90;99.90
18339;DHT22;9295;44.484;11.240;2023-02-01T07:23:44;3.00;99.90
18339;DHT22;9295;44.484;11.240;2023-02-01T07:26:14;3.10;99.90
18339;DHT22;9295;44.484;11.240;2023-02-01T07:28:45;3.90;99.90
18339;DHT22;9295;44.484;11.240;2023-02-01T07:31:16;4.50;99.90
18339;DHT22;9295;44.484;11.240;2023-02-01T07:33:46;5.40;99.90
18339;DHT22;9295;44.484;11.240;2023-02-01T07:36:15;6.30;99.90
18339;DHT22;9295;44.484;11.240;2023-02-01T07:38:44;7.20;99.90
18339;DHT22;9295;44.484;11.240;2023-02-01T07:41:14;8.20;99.90
18339;DHT22;9295;44.484;11.240;2023-02-01T07:43:44;9.10;99.90
18339;DHT22;9295;44.484;11.240;2023-02-01T07:46:14;9.90;99.90
18339;DHT22;9295;44.484;11.240;2023-02-01T07:48:43;10.70;99.90
18339;DHT22;9295;44.484;11.240;2023-02-01T07:51:14;11.50;99.90
18339;DHT22;9295;44.484;11.240;2023-02-01T07:53:43;12.10;99.90
18339;DHT22;9295;44.484;11.240;2023-02-01T07:56:14;12.70;99.90
18339;DHT22;9295;44.484;11.240;2023-02-01T07:58:43;13.30;99.90
18339;DHT22;9295;44.484;11.240;2023-02-01T08:01:17;13.90;99.90
18339;DHT22;9295;44.484;11.240;2023-02-01T08:03:52;14.40;99.90
18339;DHT22;9295;44.484;11.240;2023-02-01T08:06:22;14.50;99.90
18339;DHT22;9295;44.484;11.240;2023-02-01T08:08:51;14.00;99.90
18339;DHT22;9295;44.484;11.240;2023-02-01T08:11:21;14.00;99.90
18339;DHT22;9295;44.484;11.240;2023-02-01T08:13:50;13.70;99.90
18339;DHT22;9295;44.484;11.240;2023-02-01T08:16:21;13.30;99.90
18339;DHT22;9295;44.484;11.240;2023-02-01T08:18:50;12.50;99.90
18339;DHT22;9295;44.484;11.240;2023-02-01T08:21:20;11.70;99.90
18339;DHT22;9295;44.484;11.240;2023-02-01T08:23:50;11.00;99.90
18339;DHT22;9295;44.484;11.240;2023-02-01T08:26:20;10.40;99.90
18339;DHT22;9295;44.484;11.240;2023-02-01T08:28:52;9.80;99.90
18339;DHT22;9295;44.484;11.240;2023-02-01T08:31:23;8.80;99.90
18339;DHT22;9295;44.484;11.240;2023-02-01T08:33:54;8.50;99.90
18339;DHT22;9295;44.484;11.240;2023-02-01T08:36:24;8.60;99.90
18339;DHT22;9295;44.484;11.240;2023-02-01T08:38:53;8.70;99.90
18339;DHT22;9295;44.484;11.240;2023-02-01T08:41:24;8.60;99.90
18339;DHT22;9295;44.484;11.240;2023-02-01T08:43:53;7.80;99.90
18339;DHT22;9295;44.484;11.240;2023-02-01T08:46:23;7.40;99.90
18339;DHT22;9295;44.484;11.240;2023-02-01T08:48:52;7.20;99.90
18339;DHT22;9295;44.484;11.240;2023-02-01T08:51:22;7.50;99.90
18339;DHT22;9295;44.484;11.240;2023-02-01T08:53:51;8.00;99.90
18339;DHT22;9295;44.484;11.240;2023-02-01T08:56:20;8.40;99.90
18339;DHT22;9295;44.484;11.240;2023-02-01T08:58:49;8.70;99.90
18339;DHT22;9295;44.484;11.240;2023-02-01T09:01:18;8.70;99.90
18339;DHT22;9295;44.484;11.240;2023-02-01T09:03:48;8.50;99.90
18339;DHT22;9295;44.484;11.240;2023-02-01T09:06:16;8.50;99.90
18339;DHT22;9295;44.484;11.240;2023-02-01T09:08:45;8.70;99.90
18339;DHT22;9295;44.484;11.240;2023-02-01T09:11:15;8.80;99.90
18339;DHT22;9295;44.484;11.240;2023-02-01T09:13:44;9.10;99.90
18339;DHT22;9295;44.484;11.240;2023-02-01T09:16:13;9.20;99.90
18339;DHT22;9295;44.484;11.240;2023-02-01T09:18:42;9.00;99.90
18339;DHT22;9295;44.484;11.240;2023-02-01T09:21:29;8.70;99.90
18339;DHT22;9295;44.484;11.240;2023-02-01T09:23:58;8.40;99.90
18339;DHT22;9295;44.484;11.240;2023-02-01T09:26:26;8.50;99.90
18339;DHT22;9295;44.484;11.240;2023-02-01T09:28:59;8.90;99.90
18339;DHT22;9295;44.484;11.240;2023-02-01T09:31:28;9.40;99.90
18339;DHT22;9295;44.484;11.240;2023-02-01T09:33:57;9.80;99.90
18339;DHT22;9295;44.484;11.240;2023-02-01T09:36:26;9.90;99.90
18339;DHT22;9295;44.484;11.240;2023-02-01T09:38:59;9.60;99.90
18339;DHT22;9295;44.484;11.240;2023-02-01T09:41:35;9.70;99.90
18339;DHT22;9295;44.484;11.240;2023-02-01T09:44:15;9.80;99.90
18339;DHT22;9295;44.484;11.240;2023-02-01T09:46:47;10.10;99.90
18339;DHT22;9295;44.484;11.240;2023-02-01T09:49:19;10.30;99.90
18339;DHT22;9295;44.484;11.240;2023-02-01T09:51:51;10.50;99.90
18339;DHT22;9295;44.484;11.240;2023-02-01T09:54:24;10.40;99.90
18339;DHT22;9295;44.484;11.240;2023-02-01T09:57:00;9.90;99.90
18339;DHT22;9295;44.484;11.240;2023-02-01T09:59:34;9.50;99.90
18339;DHT22;9295;44.484;11.240;2023-02-01T10:02:12;9.40;99.90
18339;DHT22;9295;44.484;11.240;2023-02-01T10:04:41;9.80;99.90
18339;DHT22;9295;44.484;11.240;2023-02-01T10:07:18;10.10;99.90
18339;DHT22;9295;44.484;11.240;2023-02-01T10:09:58;10.40;99.90
18339;DHT22;9295;44.484;11.240;2023-02-01T10:13:04;10.60;99.90
18339;DHT22;9295;44.484;11.240;2023-02-01T10:15:47;10.10;99.90
18339;DHT22;9295;44.484;11.240;2023-02-01T10:18:31;9.90;99.90
18339;DHT22;9295;44.484;11.240;2023-02-01T10:21:08;10.00;99.90
18339;DHT22;9295;44.484;11.240;2023-02-01T10:23:51;10.30;99.90
18339;DHT22;9295;44.484;11.240;2023-02-01T10:26:37;10.50;99.90
18339;DHT22;9295;44.484;11.240;2023-02-01T10:29:12;10.60;99.90
18339;DHT22;9295;44.484;11.240;2023-02-01T10:31:43;10.30;99.90
18339;DHT22;9295;44.484;11.240;2023-02-01T10:34:18;10.20;99.90
18339;DHT22;9295;44.484;11.240;2023-02-01T10:36:54;10.50;99.90
18339;DHT22;9295;44.484;11.240;2023-02-01T10:39:23;10.60;99.90
18339;DHT22;9295;44.484;11.240;2023-02-01T10:41:54;10.60;99.90
18339;DHT22;9295;44.484;11.240;2023-02-01T10:44:26;10.30;99.90
18339;DHT22;9295;44.484;11.240;2023-02-01T10:46:56;10.10;99.90
18339;DHT22;9295;44.484;11.240;2023-02-01T10:49:29;9.90;99.90
18339;DHT22;9295;44.484;11.240;2023-02-01T10:52:05;10.10;99.90
18339;DHT22;9295;44.484;11.240;2023-02-01T10:54:37;10.30;99.90
18339;DHT22;9295;44.484;11.240;2023-02-01T10:57:09;10.50;99.90
18339;DHT22;9295;44.484;11.240;2023-02-01T10:59:38;10.60;99.90
18339;DHT22;9295;44.484;11.240;2023-02-01T11:02:19;10.30;99.90
18339;DHT22;9295;44.484;11.240;2023-02-01T11:04:48;10.00;99.90
18339;DHT22;9295;44.484;11.240;2023-02-01T11:07:22;10.10;99.90
18339;DHT22;9295;44.484;11.240;2023-02-01T11:09:53;10.30;99.90
18339;DHT22;9295;44.484;11.240;2023-02-01T11:12:30;10.50;99.90
18339;DHT22;9295;44.484;11.240;2023-02-01T11:15:11;10.70;99.90
18339;DHT22;9295;44.484;11.240;2023-02-01T11:17:43;10.60;99.90
18339;DHT22;9295;44.484;11.240;2023-02-01T11:20:14;10.20;99.90
18339;DHT22;9295;44.484;11.240;2023-02-01T11:22:48;9.90;99.90
18339;DHT22;9295;44.484;11.240;2023-02-01T11:25:17;10.20;99.90
18339;DHT22;9295;44.484;11.240;2023-02-01T11:27:49;10.50;99.90
18339;DHT22;9295;44.484;11.240;2023-02-01T11:30:28;10.80;99.90
18339;DHT22;9295;44.484;11.240;2023-02-01T11:33:00;10.90;99.90
18339;DHT22;9295;44.484;11.240;2023-02-01T11:35:34;10.60;99.90
18339;DHT22;9295;44.484;11.240;2023-02-01T11:38:12;10.40;99.90
18339;DHT22;9295;44.484;11.240;2023-02-01T11:40:42;10.40;99.90
18339;DHT22;9295;44.484;11.240;2023-02-01T11:43:23;10.70;99.90
18339;DHT22;9295;44.484;11.240;2023-02-01T11:45:57;10.90;99.90
18339;DHT22;9295;44.484;11.240;2023-02-01T11:48:28;11.00;99.90
18339;DHT22;9295;44.484;11.240;2023-02-01T11:51:15;10.80;99.90
18339;DHT22;9295;44.484;11.240;2023-02-01T11:54:06;10.90;99.90
18339;DHT22;9295;44.484;11.240;2023-02-01T11:56:37;11.10;99.90
18339;DHT22;9295;44.484;11.240;2023-02-01T11:59:19;11.10;99.90
18339;DHT22;9295;44.484;11.240;2023-02-01T12:02:09;11.20;99.90
18339;DHT22;9295;44.484;11.240;2023-02-01T12:04:57;11.00;99.90
18339;DHT22;9295;44.484;11.240;2023-02-01T12:07:36;10.90;99.90
18339;DHT22;9295;44.484;11.240;2023-02-01T12:10:20;10.60;99.90
18339;DHT22;9295;44.484;11.240;2023-02-01T12:12:59;10.90;99.90
18339;DHT22;9295;44.484;11.240;2023-02-01T12:15:41;11.10;99.90
18339;DHT22;9295;44.484;11.240;2023-02-01T12:21:38;11.30;99.90
18339;DHT22;9295;44.484;11.240;2023-02-01T12:24:32;11.40;99.90
18339;DHT22;9295;44.484;11.240;2023-02-01T12:27:18;11.40;99.90
18339;DHT22;9295;44.484;11.240;2023-02-01T12:29:55;11.50;99.90
18339;DHT22;9295;44.484;11.240;2023-02-01T12:32:46;11.60;99.90
18339;DHT22;9295;44.484;11.240;2023-02-01T12:35:38;11.40;99.90
18339;DHT22;9295;44.484;11.240;2023-02-01T12:38:21;11.20;99.90
18339;DHT22;9295;44.484;11.240;2023-02-01T12:41:10;11.30;99.90
18339;DHT22;9295;44.484;11.240;2023-02-01T12:43:46;11.50;99.90
18339;DHT22;9295;44.484;11.240;2023-02-01T12:46:18;11.70;99.90
18339;DHT22;9295;44.484;11.240;2023-02-01T12:48:55;11.80;99.90
18339;DHT22;9295;44.484;11.240;2023-02-01T12:51:27;11.20;99.90
18339;DHT22;9295;44.484;11.240;2023-02-01T12:54:02;10.80;99.90
18339;DHT22;9295;44.484;11.240;2023-02-01T12:56:35;11.00;99.90
18339;DHT22;9295;44.484;11.240;2023-02-01T12:59:08;11.30;99.90
18339;DHT22;9295;44.484;11.240;2023-02-01T13:01:42;11.60;99.90
18339;DHT22;9295;44.484;11.240;2023-02-01T13:04:20;11.70;99.90
18339;DHT22;9295;44.484;11.240;2023-02-01T13:06:54;11.50;99.90
18339;DHT22;9295;44.484;11.240;2023-02-01T13:09:27;11.00;99.90
18339;DHT22;9295;44.484;11.240;2023-02-01T13:11:59;11.10;99.90
18339;DHT22;9295;44.484;11.240;2023-02-01T13:14:35;11.40;99.90
18339;DHT22;9295;44.484;11.240;2023-02-01T13:17:14;11.60;99.90
18339;DHT22;9295;44.484;11.240;2023-02-01T13:19:49;11.70;99.90
18339;DHT22;9295;44.484;11.240;2023-02-01T13:22:21;11.30;99.90
18339;DHT22;9295;44.484;11.240;2023-02-01T13:24:54;11.30;99.90
18339;DHT22;9295;44.484;11.240;2023-02-01T13:27:26;11.30;99.90
18339;DHT22;9295;44.484;11.240;2023-02-01T13:29:59;11.50;99.90
18339;DHT22;9295;44.484;11.240;2023-02-01T13:32:55;11.80;99.90
18339;DHT22;9295;44.484;11.240;2023-02-01T13:36:01;12.00;99.90
18339;DHT22;9295;44.484;11.240;2023-02-01T13:41:41;11.70;99.90
18339;DHT22;9295;44.484;11.240;2023-02-01T13:44:13;11.90;99.90
18339;DHT22;9295;44.484;11.240;2023-02-01T13:46:46;12.10;99.90
18339;DHT22;9295;44.484;11.240;2023-02-01T13:49:21;12.20;99.90
18339;DHT22;9295;44.484;11.240;2023-02-01T13:51:54;11.80;99.90
18339;DHT22;9295;44.484;11.240;2023-02-01T13:54:28;11.30;99.90
18339;DHT22;9295;44.484;11.240;2023-02-01T13:56:58;11.20;99.90
18339;DHT22;9295;44.484;11.240;2023-02-01T13:59:51;11.60;99.90
18339;DHT22;9295;44.484;11.240;2023-02-01T14:06:14;12.20;99.90
18339;DHT22;9295;44.484;11.240;2023-02-01T14:09:05;12.30;99.90
18339;DHT22;9295;44.484;11.240;2023-02-01T14:11:41;12.40;99.90
18339;DHT22;9295;44.484;11.240;2023-02-01T14:14:44;12.10;99.90
18339;DHT22;9295;44.484;11.240;2023-02-01T14:17:32;11.60;99.90
18339;DHT22;9295;44.484;11.240;2023-02-01T14:23:15;11.50;99.90
18339;DHT22;9295;44.484;11.240;2023-02-01T14:25:48;11.80;99.90
18339;DHT22;9295;44.484;11.240;2023-02-01T14:28:29;12.00;99.90
18339;DHT22;9295;44.484;11.240;2023-02-01T14:30:58;12.20;99.90
18339;DHT22;9295;44.484;11.240;2023-02-01T14:33:27;12.10;99.90
18339;DHT22;9295;44.484;11.240;2023-02-01T14:36:04;11.80;99.90
18339;DHT22;9295;44.484;11.240;2023-02-01T14:38:36;12.00;99.90
18339;DHT22;9295;44.484;11.240;2023-02-01T14:41:25;12.20;99.90
18339;DHT22;9295;44.484;11.240;2023-02-01T14:44:28;12.30;99.90
18339;DHT22;9295;44.484;11.240;2023-02-01T14:50:18;11.30;99.90
18339;DHT22;9295;44.484;11.240;2023-02-01T14:52:57;11.20;99.90
18339;DHT22;9295;44.484;11.240;2023-02-01T14:55:30;11.50;99.90
18339;DHT22;9295;44.484;11.240;2023-02-01T14:58:09;11.80;99.90
18339;DHT22;9295;44.484;11.240;2023-02-01T15:00:50;12.00;99.90
18339;DHT22;9295;44.484;11.240;2023-02-01T15:03:43;12.00;99.90
18339;DHT22;9295;44.484;11.240;2023-02-01T15:06:23;11.40;99.90
18339;DHT22;9295;44.484;11.240;2023-02-01T15:08:55;11.50;99.90
18339;DHT22;9295;44.484;11.240;2023-02-01T15:11:24;11.70;99.90
18339;DHT22;9295;44.484;11.240;2023-02-01T15:13:54;11.80;99.90
18339;DHT22;9295;44.484;11.240;2023-02-01T15:16:25;11.80;99.90
18339;DHT22;9295;44.484;11.240;2023-02-01T15:19:08;11.40;99.90
18339;DHT22;9295;44.484;11.240;2023-02-01T15:21:45;11.10;99.90
18339;DHT22;9295;44.484;11.240;2023-02-01T15:24:19;11.20;99.90
18339;DHT22;9295;44.484;11.240;2023-02-01T15:26:49;11.30;99.90
18339;DHT22;9295;44.484;11.240;2023-02-01T15:29:20;11.40;99.90
18339;DHT22;9295;44.484;11.240;2023-02-01T15:31:50;11.50;99.90
18339;DHT22;9295;44.484;11.240;2023-02-01T15:34:20;11.40;99.90
18339;DHT22;9295;44.484;11.240;2023-02-01T15:36:49;11.10;99.90
18339;DHT22;9295;44.484;11.240;2023-02-01T15:39:29;11.00;99.90
18339;DHT22;9295;44.484;11.240;2023-02-01T15:42:01;11.20;99.90
18339;DHT22;9295;44.484;11.240;2023-02-01T15:44:40;11.40;99.90
18339;DHT22;9295;44.484;11.240;2023-02-01T15:47:15;11.40;99.90
18339;DHT22;9295;44.484;11.240;2023-02-01T15:49:46;11.30;99.90
18339;DHT22;9295;44.484;11.240;2023-02-01T15:52:26;10.80;99.90
18339;DHT22;9295;44.484;11.240;2023-02-01T15:54:57;10.60;99.90
18339;DHT22;9295;44.484;11.240;2023-02-01T15:57:28;10.80;99.90
18339;DHT22;9295;44.484;11.240;2023-02-01T16:00:02;10.90;99.90
18339;DHT22;9295;44.484;11.240;2023-02-01T16:02:42;10.80;99.90
18339;DHT22;9295;44.484;11.240;2023-02-01T16:05:29;10.40;99.90
18339;DHT22;9295;44.484;11.240;2023-02-01T16:08:01;10.30;99.90
18339;DHT22;9295;44.484;11.240;2023-02-01T16:10:37;10.20;99.90
18339;DHT22;9295;44.484;11.240;2023-02-01T16:13:06;10.20;99.90
18339;DHT22;9295;44.484;11.240;2023-02-01T16:15:36;10.00;99.90
18339;DHT22;9295;44.484;11.240;2023-02-01T16:18:05;9.60;99.90
18339;DHT22;9295;44.484;11.240;2023-02-01T16:20:35;9.20;99.90
18339;DHT22;9295;44.484;11.240;2023-02-01T16:23:04;9.10;99.90
18339;DHT22;9295;44.484;11.240;2023-02-01T16:25:33;9.10;99.90
18339;DHT22;9295;44.484;11.240;2023-02-01T16:28:02;9.10;99.90
18339;DHT22;9295;44.484;11.240;2023-02-01T16:30:32;9.20;99.90
18339;DHT22;9295;44.484;11.240;2023-02-01T16:33:03;9.10;99.90
18339;DHT22;9295;44.484;11.240;2023-02-01T16:35:34;8.80;99.90
18339;DHT22;9295;44.484;11.240;2023-02-01T16:38:03;8.50;99.90
18339;DHT22;9295;44.484;11.240;2023-02-01T16:40:35;8.40;99.90
18339;DHT22;9295;44.484;11.240;2023-02-01T16:43:11;8.50;99.90